sensor_id;sensor_type;location;lat;lon;timestamp;pressure;altitude;pressure_sealevel;temperature;humidity
68226;BME280;55045;49.410;11.030;2023-07-02T00:02:45;97294.97;;;17.89;100.00
68226;BME280;55045;49.410;11.030;2023-07-02T00:05:49;97291.53;;;17.69;100.00
68226;BME280;55045;49.410;11.030;2023-07-02T00:08:57;97303.75;;;17.49;100.00
68226;BME280;55045;49.410;11.030;2023-07-02T00:12:00;97294.97;;;17.70;100.00
68226;BME280;55045;49.410;11.030;2023-07-02T00:15:05;97303.19;;;17.55;100.00
68226;BME280;55045;49.410;11.030;2023-07-02T00:18:08;97309.28;;;17.66;100.00
68226;BME280;55045;49.410;11.030;2023-07-02T00:21:11;97299.19;;;17.51;100.00
68226;BME280;55045;49.410;11.030;2023-07-02T00:24:16;97299.06;;;17.43;100.00
68226;BME280;55045;49.410;11.030;2023-07-02T00:27:19;97299.75;;;17.45;100.00
68226;BME280;55045;49.410;11.030;2023-07-02T00:30:22;97308.16;;;17.30;100.00
68226;BME280;55045;49.410;11.030;2023-07-02T00:33:26;97306.50;;;17.38;100.00
68226;BME280;55045;49.410;11.030;2023-07-02T00:36:30;97318.34;;;17.33;100.00
68226;BME280;55045;49.410;11.030;2023-07-02T00:39:34;97313.56;;;17.38;100.00
68226;BME280;55045;49.410;11.030;2023-07-02T00:42:38;97310.38;;;17.53;100.00
68226;BME280;55045;49.410;11.030;2023-07-02T00:45:41;97314.63;;;17.35;100.00
68226;BME280;55045;49.410;11.030;2023-07-02T00:48:46;97306.66;;;17.66;100.00
68226;BME280;55045;49.410;11.030;2023-07-02T00:51:49;97312.97;;;17.34;100.00
68226;BME280;55045;49.410;11.030;2023-07-02T00:54:54;97312.63;;;17.68;100.00
68226;BME280;55045;49.410;11.030;2023-07-02T00:57:57;97310.81;;;17.49;100.00
68226;BME280;55045;49.410;11.030;2023-07-02T01:01:01;97305.13;;;17.53;100.00
68226;BME280;55045;49.410;11.030;2023-07-02T01:04:05;97313.31;;;17.70;100.00
68226;BME280;55045;49.410;11.030;2023-07-02T01:07:10;97309.06;;;17.88;100.00
68226;BME280;55045;49.410;11.030;2023-07-02T01:10:14;97309.88;;;17.69;100.00
68226;BME280;55045;49.410;11.030;2023-07-02T01:13:21;97319.94;;;18.03;100.00
68226;BME280;55045;49.410;11.030;2023-07-02T01:16:26;97318.91;;;17.36;100.00
68226;BME280;55045;49.410;11.030;2023-07-02T01:19:42;97313.97;;;17.62;100.00
68226;BME280;55045;49.410;11.030;2023-07-02T01:22:48;97324.16;;;17.55;100.00
68226;BME280;55045;49.410;11.030;2023-07-02T01:25:53;97320.03;;;17.53;100.00
68226;BME280;55045;49.410;11.030;2023-07-02T01:28:56;97325.44;;;17.61;100.00
68226;BME280;55045;49.410;11.030;2023-07-02T01:32:00;97317.28;;;17.64;100.00
68226;BME280;55045;49.410;11.030;2023-07-02T01:35:07;97325.00;;;17.46;100.00
68226;BME280;55045;49.410;11.030;2023-07-02T01:38:11;97324.16;;;17.55;100.00
68226;BME280;55045;49.410;11.030;2023-07-02T01:41:14;97318.94;;;17.55;100.00
68226;BME280;55045;49.410;11.030;2023-07-02T01:44:18;97325.53;;;17.40;100.00
68226;BME280;55045;49.410;11.030;2023-07-02T01:47:21;97322.13;;;17.49;100.00
68226;BME280;55045;49.410;11.030;2023-07-02T01:50:26;97318.94;;;17.55;100.00
68226;BME280;55045;49.410;11.030;2023-07-02T01:53:29;97324.88;;;17.48;100.00
68226;BME280;55045;49.410;11.030;2023-07-02T01:56:32;97329.25;;;17.28;100.00
68226;BME280;55045;49.410;11.030;2023-07-02T01:59:35;97337.41;;;17.44;100.00
68226;BME280;55045;49.410;11.030;2023-07-02T02:02:46;97328.88;;;17.62;100.00
68226;BME280;55045;49.410;11.030;2023-07-02T02:05:51;97335.72;;;17.34;100.00
68226;BME280;55045;49.410;11.030;2023-07-02T02:08:54;97338.78;;;17.29;100.00
68226;BME280;55045;49.410;11.030;2023-07-02T02:11:57;97319.53;;;16.99;100.00
68226;BME280;55045;49.410;11.030;2023-07-02T02:15:00;97340.25;;;17.22;100.00
68226;BME280;55045;49.410;11.030;2023-07-02T02:18:04;97347.72;;;17.36;100.00
68226;BME280;55045;49.410;11.030;2023-07-02T02:21:09;97352.09;;;17.16;100.00
68226;BME280;55045;49.410;11.030;2023-07-02T02:24:12;97351.91;;;16.98;100.00
68226;BME280;55045;49.410;11.030;2023-07-02T02:27:15;97353.84;;;17.06;100.00
68226;BME280;55045;49.410;11.030;2023-07-02T02:30:19;97350.34;;;17.17;100.00
68226;BME280;55045;49.410;11.030;2023-07-02T02:33:23;97354.31;;;17.21;100.00
68226;BME280;55045;49.410;11.030;2023-07-02T02:36:28;97347.28;;;16.81;100.00
68226;BME280;55045;49.410;11.030;2023-07-02T02:39:31;97346.28;;;16.73;100.00
68226;BME280;55045;49.410;11.030;2023-07-02T02:42:35;97344.50;;;16.73;100.00
68226;BME280;55045;49.410;11.030;2023-07-02T02:45:39;97344.25;;;16.55;100.00
68226;BME280;55045;49.410;11.030;2023-07-02T02:48:42;97345.72;;;16.48;100.00
68226;BME280;55045;49.410;11.030;2023-07-02T02:51:46;97346.28;;;16.52;100.00
68226;BME280;55045;49.410;11.030;2023-07-02T02:54:50;97349.94;;;16.39;100.00
68226;BME280;55045;49.410;11.030;2023-07-02T02:57:55;97344.50;;;16.52;100.00
68226;BME280;55045;49.410;11.030;2023-07-02T03:00:58;97355.53;;;16.14;100.00
68226;BME280;55045;49.410;11.030;2023-07-02T03:04:01;97360.00;;;16.23;100.00
68226;BME280;55045;49.410;11.030;2023-07-02T03:07:06;97325.09;;;15.92;100.00
68226;BME280;55045;49.410;11.030;2023-07-02T03:10:09;97360.59;;;16.27;100.00
68226;BME280;55045;49.410;11.030;2023-07-02T03:13:13;97364.63;;;16.31;100.00
68226;BME280;55045;49.410;11.030;2023-07-02T03:16:16;97368.53;;;16.16;100.00
68226;BME280;55045;49.410;11.030;2023-07-02T03:19:19;97372.25;;;16.02;100.00
68226;BME280;55045;49.410;11.030;2023-07-02T03:22:24;97373.03;;;16.13;100.00
68226;BME280;55045;49.410;11.030;2023-07-02T03:25:27;97381.59;;;16.16;100.00
68226;BME280;55045;49.410;11.030;2023-07-02T03:28:30;97385.22;;;16.24;100.00
68226;BME280;55045;49.410;11.030;2023-07-02T03:35:07;97381.53;;;16.27;100.00
68226;BME280;55045;49.410;11.030;2023-07-02T03:38:10;97379.16;;;16.24;100.00
68226;BME280;55045;49.410;11.030;2023-07-02T03:41:13;97390.41;;;16.35;100.00
68226;BME280;55045;49.410;11.030;2023-07-02T03:44:16;97390.50;;;16.45;100.00
68226;BME280;55045;49.410;11.030;2023-07-02T03:47:21;97392.44;;;16.32;100.00
68226;BME280;55045;49.410;11.030;2023-07-02T03:50:26;97402.88;;;16.11;100.00
68226;BME280;55045;49.410;11.030;2023-07-02T03:53:29;97404.81;;;16.09;100.00
68226;BME280;55045;49.410;11.030;2023-07-02T03:56:32;97408.66;;;16.05;100.00
68226;BME280;55045;49.410;11.030;2023-07-02T03:59:35;97418.19;;;16.27;100.00
68226;BME280;55045;49.410;11.030;2023-07-02T04:02:45;97413.56;;;16.19;100.00
68226;BME280;55045;49.410;11.030;2023-07-02T04:05:50;97414.84;;;16.25;100.00
68226;BME280;55045;49.410;11.030;2023-07-02T04:08:53;97408.59;;;16.16;100.00
68226;BME280;55045;49.410;11.030;2023-07-02T04:11:57;97418.47;;;16.33;100.00
68226;BME280;55045;49.410;11.030;2023-07-02T04:15:00;97421.34;;;16.30;100.00
68226;BME280;55045;49.410;11.030;2023-07-02T04:18:05;97423.66;;;16.45;100.00
68226;BME280;55045;49.410;11.030;2023-07-02T04:21:09;97424.38;;;16.47;100.00
68226;BME280;55045;49.410;11.030;2023-07-02T04:24:12;97427.47;;;16.20;100.00
68226;BME280;55045;49.410;11.030;2023-07-02T04:27:16;97422.97;;;16.42;100.00
68226;BME280;55045;49.410;11.030;2023-07-02T04:30:40;97433.53;;;16.20;100.00
68226;BME280;55045;49.410;11.030;2023-07-02T04:33:44;97433.34;;;16.33;100.00
68226;BME280;55045;49.410;11.030;2023-07-02T04:36:48;97435.16;;;16.53;100.00
68226;BME280;55045;49.410;11.030;2023-07-02T04:39:55;97436.09;;;16.31;100.00
68226;BME280;55045;49.410;11.030;2023-07-02T04:42:58;97432.94;;;16.49;100.00
68226;BME280;55045;49.410;11.030;2023-07-02T04:46:02;97428.25;;;16.52;100.00
68226;BME280;55045;49.410;11.030;2023-07-02T04:49:05;97436.44;;;16.38;100.00
68226;BME280;55045;49.410;11.030;2023-07-02T04:52:10;97446.56;;;16.31;100.00
68226;BME280;55045;49.410;11.030;2023-07-02T04:55:14;97446.22;;;16.57;100.00
68226;BME280;55045;49.410;11.030;2023-07-02T04:58:17;97402.47;;;16.27;100.00
68226;BME280;55045;49.410;11.030;2023-07-02T05:01:20;97449.00;;;16.44;100.00
68226;BME280;55045;49.410;11.030;2023-07-02T05:04:23;97450.19;;;16.72;100.00
68226;BME280;55045;49.410;11.030;2023-07-02T05:07:28;97463.88;;;16.64;100.00
68226;BME280;55045;49.410;11.030;2023-07-02T05:10:31;97462.91;;;16.45;100.00
68226;BME280;55045;49.410;11.030;2023-07-02T05:13:35;97466.94;;;16.49;100.00
68226;BME280;55045;49.410;11.030;2023-07-02T05:16:38;97470.50;;;16.80;100.00
68226;BME280;55045;49.410;11.030;2023-07-02T05:19:42;97481.97;;;16.47;100.00
68226;BME280;55045;49.410;11.030;2023-07-02T05:22:46;97487.53;;;16.74;100.00
68226;BME280;55045;49.410;11.030;2023-07-02T05:25:50;97480.91;;;16.70;100.00
68226;BME280;55045;49.410;11.030;2023-07-02T05:28:53;97478.63;;;16.77;100.00
68226;BME280;55045;49.410;11.030;2023-07-02T05:31:56;97478.44;;;16.89;100.00
68226;BME280;55045;49.410;11.030;2023-07-02T05:34:59;97490.91;;;16.76;100.00
68226;BME280;55045;49.410;11.030;2023-07-02T05:38:04;97493.06;;;16.60;100.00
68226;BME280;55045;49.410;11.030;2023-07-02T05:41:07;97492.41;;;16.79;100.00
68226;BME280;55045;49.410;11.030;2023-07-02T05:44:11;97480.13;;;16.58;100.00
68226;BME280;55045;49.410;11.030;2023-07-02T05:47:14;97485.81;;;16.84;100.00
68226;BME280;55045;49.410;11.030;2023-07-02T05:50:17;97484.69;;;16.77;100.00
68226;BME280;55045;49.410;11.030;2023-07-02T05:53:22;97493.59;;;16.95;100.00
68226;BME280;55045;49.410;11.030;2023-07-02T05:56:25;97492.56;;;16.77;100.00
68226;BME280;55045;49.410;11.030;2023-07-02T05:59:28;97486.91;;;16.82;100.00
68226;BME280;55045;49.410;11.030;2023-07-02T06:02:32;97491.31;;;16.81;100.00
68226;BME280;55045;49.410;11.030;2023-07-02T06:05:35;97478.53;;;17.09;100.00
68226;BME280;55045;49.410;11.030;2023-07-02T06:08:40;97489.31;;;16.94;100.00
68226;BME280;55045;49.410;11.030;2023-07-02T06:11:43;97498.13;;;17.14;100.00
68226;BME280;55045;49.410;11.030;2023-07-02T06:14:47;97497.41;;;17.33;100.00
68226;BME280;55045;49.410;11.030;2023-07-02T06:17:50;97496.25;;;17.56;100.00
68226;BME280;55045;49.410;11.030;2023-07-02T06:20:54;97497.06;;;17.78;100.00
68226;BME280;55045;49.410;11.030;2023-07-02T06:24:00;97500.56;;;17.67;100.00
68226;BME280;55045;49.410;11.030;2023-07-02T06:27:04;97507.03;;;17.63;100.00
68226;BME280;55045;49.410;11.030;2023-07-02T06:30:08;97513.25;;;17.62;100.00
68226;BME280;55045;49.410;11.030;2023-07-02T06:33:11;97513.47;;;17.70;100.00
68226;BME280;55045;49.410;11.030;2023-07-02T06:36:14;97515.84;;;17.83;100.00
68226;BME280;55045;49.410;11.030;2023-07-02T06:39:20;97510.38;;;18.05;100.00
68226;BME280;55045;49.410;11.030;2023-07-02T06:42:24;97511.09;;;18.27;100.00
68226;BME280;55045;49.410;11.030;2023-07-02T06:45:27;97505.16;;;18.44;100.00
68226;BME280;55045;49.410;11.030;2023-07-02T06:48:30;97515.31;;;19.34;98.89
68226;BME280;55045;49.410;11.030;2023-07-02T06:51:33;97517.72;;;18.98;98.05
68226;BME280;55045;49.410;11.030;2023-07-02T06:54:38;97523.13;;;18.39;97.25
68226;BME280;55045;49.410;11.030;2023-07-02T06:57:44;97515.81;;;18.33;96.19
68226;BME280;55045;49.410;11.030;2023-07-02T07:00:48;97519.56;;;18.50;96.22
68226;BME280;55045;49.410;11.030;2023-07-02T07:03:52;97509.41;;;18.06;96.52
68226;BME280;55045;49.410;11.030;2023-07-02T07:06:55;97512.38;;;18.61;95.35
68226;BME280;55045;49.410;11.030;2023-07-02T07:09:59;97521.59;;;18.36;97.43
68226;BME280;55045;49.410;11.030;2023-07-02T07:13:03;97517.16;;;17.98;96.67
68226;BME280;55045;49.410;11.030;2023-07-02T07:16:07;97507.09;;;18.42;98.83
68226;BME280;55045;49.410;11.030;2023-07-02T07:19:10;97512.94;;;18.65;95.56
68226;BME280;55045;49.410;11.030;2023-07-02T07:22:13;97509.75;;;18.61;96.98
68226;BME280;55045;49.410;11.030;2023-07-02T07:25:18;97513.19;;;18.42;97.50
68226;BME280;55045;49.410;11.030;2023-07-02T07:28:21;97511.25;;;18.54;99.54
68226;BME280;55045;49.410;11.030;2023-07-02T07:31:24;97514.44;;;18.67;97.91
68226;BME280;55045;49.410;11.030;2023-07-02T07:34:28;97508.50;;;18.65;97.60
68226;BME280;55045;49.410;11.030;2023-07-02T07:37:31;97509.63;;;18.73;96.22
68226;BME280;55045;49.410;11.030;2023-07-02T07:40:36;97517.34;;;18.55;95.67
68226;BME280;55045;49.410;11.030;2023-07-02T07:43:39;97519.56;;;18.40;96.04
68226;BME280;55045;49.410;11.030;2023-07-02T07:46:42;97516.78;;;18.32;95.97
68226;BME280;55045;49.410;11.030;2023-07-02T07:49:46;97515.69;;;18.63;94.28
68226;BME280;55045;49.410;11.030;2023-07-02T07:52:49;97512.03;;;19.22;92.76
68226;BME280;55045;49.410;11.030;2023-07-02T07:55:54;97511.50;;;19.09;93.54
68226;BME280;55045;49.410;11.030;2023-07-02T07:58:58;97521.59;;;19.51;91.07
68226;BME280;55045;49.410;11.030;2023-07-02T08:02:01;97507.84;;;19.76;92.08
68226;BME280;55045;49.410;11.030;2023-07-02T08:05:05;97508.31;;;20.70;88.73
68226;BME280;55045;49.410;11.030;2023-07-02T08:08:09;97507.84;;;19.76;90.88
68226;BME280;55045;49.410;11.030;2023-07-02T08:11:14;97508.59;;;19.59;92.32
68226;BME280;55045;49.410;11.030;2023-07-02T08:14:17;97492.28;;;19.46;87.75
68226;BME280;55045;49.410;11.030;2023-07-02T08:17:21;97521.00;;;19.76;85.38
68226;BME280;55045;49.410;11.030;2023-07-02T08:20:24;97517.38;;;19.77;86.63
68226;BME280;55045;49.410;11.030;2023-07-02T08:23:27;97511.94;;;18.95;87.04
68226;BME280;55045;49.410;11.030;2023-07-02T08:26:32;97521.78;;;18.83;87.59
68226;BME280;55045;49.410;11.030;2023-07-02T08:29:35;97523.25;;;19.05;86.20
68226;BME280;55045;49.410;11.030;2023-07-02T08:32:45;97521.50;;;19.43;84.38
68226;BME280;55045;49.410;11.030;2023-07-02T08:35:49;97516.19;;;20.45;82.78
68226;BME280;55045;49.410;11.030;2023-07-02T08:38:54;97515.59;;;20.23;83.87
68226;BME280;55045;49.410;11.030;2023-07-02T08:41:59;97529.09;;;19.93;85.37
68226;BME280;55045;49.410;11.030;2023-07-02T08:45:02;97535.56;;;19.61;85.88
68226;BME280;55045;49.410;11.030;2023-07-02T08:48:08;97538.81;;;19.36;84.57
68226;BME280;55045;49.410;11.030;2023-07-02T08:51:13;97531.44;;;19.49;86.09
68226;BME280;55045;49.410;11.030;2023-07-02T08:54:17;97526.56;;;20.46;83.24
68226;BME280;55045;49.410;11.030;2023-07-02T08:57:22;97524.63;;;21.62;80.70
68226;BME280;55045;49.410;11.030;2023-07-02T09:00:25;97505.25;;;21.01;79.75
68226;BME280;55045;49.410;11.030;2023-07-02T09:03:28;97536.69;;;20.94;81.86
68226;BME280;55045;49.410;11.030;2023-07-02T09:06:32;97531.72;;;19.93;84.47
68226;BME280;55045;49.410;11.030;2023-07-02T09:09:44;97536.59;;;19.88;86.22
68226;BME280;55045;49.410;11.030;2023-07-02T09:12:49;97544.38;;;20.88;83.21
68226;BME280;55045;49.410;11.030;2023-07-02T09:15:53;97534.84;;;21.65;79.08
68226;BME280;55045;49.410;11.030;2023-07-02T09:19:01;97527.06;;;21.89;75.49
68226;BME280;55045;49.410;11.030;2023-07-02T09:22:05;97529.69;;;21.89;74.94
68226;BME280;55045;49.410;11.030;2023-07-02T09:25:08;97541.25;;;21.10;78.16
68226;BME280;55045;49.410;11.030;2023-07-02T09:28:16;97537.69;;;20.58;79.59
68226;BME280;55045;49.410;11.030;2023-07-02T09:35:06;97541.75;;;21.58;72.19
68226;BME280;55045;49.410;11.030;2023-07-02T09:38:10;97533.09;;;21.39;72.65
68226;BME280;55045;49.410;11.030;2023-07-02T09:41:13;97531.31;;;21.82;69.60
68226;BME280;55045;49.410;11.030;2023-07-02T09:44:17;97529.03;;;21.53;70.54
68226;BME280;55045;49.410;11.030;2023-07-02T09:47:21;97534.59;;;20.98;76.41
68226;BME280;55045;49.410;11.030;2023-07-02T09:50:27;97540.78;;;20.89;77.83
68226;BME280;55045;49.410;11.030;2023-07-02T09:53:32;97536.16;;;22.45;72.89
68226;BME280;55045;49.410;11.030;2023-07-02T09:56:35;97523.56;;;21.80;70.73
68226;BME280;55045;49.410;11.030;2023-07-02T09:59:39;97528.41;;;21.59;68.84
68226;BME280;55045;49.410;11.030;2023-07-02T10:02:48;97524.72;;;21.78;69.55
68226;BME280;55045;49.410;11.030;2023-07-02T10:06:02;97532.84;;;21.07;74.30
68226;BME280;55045;49.410;11.030;2023-07-02T10:09:06;97530.72;;;21.62;70.96
68226;BME280;55045;49.410;11.030;2023-07-02T10:12:17;97534.00;;;21.56;71.62
68226;BME280;55045;49.410;11.030;2023-07-02T10:15:24;97542.69;;;21.48;71.84
68226;BME280;55045;49.410;11.030;2023-07-02T10:18:28;97540.31;;;21.97;68.44
68226;BME280;55045;49.410;11.030;2023-07-02T10:21:33;97544.47;;;21.22;72.03
68226;BME280;55045;49.410;11.030;2023-07-02T10:24:36;97546.28;;;21.73;70.02
68226;BME280;55045;49.410;11.030;2023-07-02T10:27:40;97541.59;;;21.93;70.46
68226;BME280;55045;49.410;11.030;2023-07-02T10:30:45;97543.22;;;22.28;67.98
68226;BME280;55045;49.410;11.030;2023-07-02T10:33:49;97543.06;;;21.10;70.71
68226;BME280;55045;49.410;11.030;2023-07-02T10:36:54;97534.28;;;21.79;69.06
68226;BME280;55045;49.410;11.030;2023-07-02T10:39:58;97539.31;;;21.98;67.66
68226;BME280;55045;49.410;11.030;2023-07-02T10:43:01;97547.63;;;22.11;65.81
68226;BME280;55045;49.410;11.030;2023-07-02T10:46:04;97545.91;;;22.53;61.61
68226;BME280;55045;49.410;11.030;2023-07-02T10:49:07;97548.22;;;21.97;64.41
68226;BME280;55045;49.410;11.030;2023-07-02T10:52:12;97541.66;;;21.67;65.28
68226;BME280;55045;49.410;11.030;2023-07-02T10:55:16;97539.16;;;22.00;64.73
68226;BME280;55045;49.410;11.030;2023-07-02T10:58:20;97531.56;;;23.28;63.17
68226;BME280;55045;49.410;11.030;2023-07-02T11:01:25;97530.28;;;23.00;57.88
68226;BME280;55045;49.410;11.030;2023-07-02T11:04:29;97533.59;;;23.02;56.57
68226;BME280;55045;49.410;11.030;2023-07-02T11:07:34;97544.88;;;24.15;56.68
68226;BME280;55045;49.410;11.030;2023-07-02T11:10:38;97474.56;;;22.77;56.10
68226;BME280;55045;49.410;11.030;2023-07-02T11:13:44;97534.72;;;22.83;56.62
68226;BME280;55045;49.410;11.030;2023-07-02T11:16:54;97538.44;;;24.09;49.46
68226;BME280;55045;49.410;11.030;2023-07-02T11:19:57;97544.00;;;23.04;50.37
68226;BME280;55045;49.410;11.030;2023-07-02T11:23:02;97530.63;;;22.14;53.95
68226;BME280;55045;49.410;11.030;2023-07-02T11:26:05;97545.16;;;22.93;53.12
68226;BME280;55045;49.410;11.030;2023-07-02T11:29:11;97543.84;;;22.89;53.21
68226;BME280;55045;49.410;11.030;2023-07-02T11:32:14;97544.44;;;22.75;52.61
68226;BME280;55045;49.410;11.030;2023-07-02T11:35:17;97529.09;;;23.19;51.41
68226;BME280;55045;49.410;11.030;2023-07-02T11:38:22;97520.91;;;23.69;49.74
68226;BME280;55045;49.410;11.030;2023-07-02T11:41:39;97533.91;;;23.07;51.13
68226;BME280;55045;49.410;11.030;2023-07-02T11:44:43;97540.13;;;23.39;50.88
68226;BME280;55045;49.410;11.030;2023-07-02T11:47:46;97534.84;;;23.47;50.30
68226;BME280;55045;49.410;11.030;2023-07-02T11:50:50;97540.47;;;23.99;50.86
68226;BME280;55045;49.410;11.030;2023-07-02T11:53:55;97531.22;;;24.03;50.38
68226;BME280;55045;49.410;11.030;2023-07-02T11:56:58;97540.56;;;24.76;50.88
68226;BME280;55045;49.410;11.030;2023-07-02T12:00:02;97547.16;;;24.80;48.26
68226;BME280;55045;49.410;11.030;2023-07-02T12:03:10;97538.59;;;24.16;49.04
68226;BME280;55045;49.410;11.030;2023-07-02T12:06:14;97531.44;;;23.85;50.39
68226;BME280;55045;49.410;11.030;2023-07-02T12:09:19;97536.84;;;22.71;53.26
68226;BME280;55045;49.410;11.030;2023-07-02T12:12:24;97538.88;;;23.10;54.24
68226;BME280;55045;49.410;11.030;2023-07-02T12:15:27;97541.47;;;23.43;53.41
68226;BME280;55045;49.410;11.030;2023-07-02T12:18:30;97532.06;;;23.24;54.31
68226;BME280;55045;49.410;11.030;2023-07-02T12:21:34;97531.41;;;22.97;55.70
68226;BME280;55045;49.410;11.030;2023-07-02T12:24:38;97527.09;;;22.56;54.75
68226;BME280;55045;49.410;11.030;2023-07-02T12:27:41;97519.69;;;23.80;51.25
68226;BME280;55045;49.410;11.030;2023-07-02T12:30:44;97526.59;;;23.97;48.83
68226;BME280;55045;49.410;11.030;2023-07-02T12:33:48;97515.88;;;24.22;51.10
68226;BME280;55045;49.410;11.030;2023-07-02T12:36:51;97531.94;;;24.20;50.70
68226;BME280;55045;49.410;11.030;2023-07-02T12:39:56;97524.88;;;23.57;52.51
68226;BME280;55045;49.410;11.030;2023-07-02T12:42:59;97528.56;;;24.03;50.68
68226;BME280;55045;49.410;11.030;2023-07-02T12:46:03;97529.00;;;23.68;51.38
68226;BME280;55045;49.410;11.030;2023-07-02T12:49:06;97527.06;;;23.53;51.89
68226;BME280;55045;49.410;11.030;2023-07-02T12:52:09;97527.63;;;22.92;52.14
68226;BME280;55045;49.410;11.030;2023-07-02T12:55:14;97530.53;;;23.54;50.82
68226;BME280;55045;49.410;11.030;2023-07-02T12:58:17;97524.59;;;23.44;50.80
68226;BME280;55045;49.410;11.030;2023-07-02T13:01:21;97534.16;;;23.53;52.75
68226;BME280;55045;49.410;11.030;2023-07-02T13:04:26;97531.94;;;23.01;54.33
68226;BME280;55045;49.410;11.030;2023-07-02T13:07:29;97529.25;;;22.60;55.31
68226;BME280;55045;49.410;11.030;2023-07-02T13:10:34;97532.69;;;24.06;53.69
68226;BME280;55045;49.410;11.030;2023-07-02T13:13:38;97529.06;;;24.30;49.81
68226;BME280;55045;49.410;11.030;2023-07-02T13:16:42;97537.41;;;24.19;50.81
68226;BME280;55045;49.410;11.030;2023-07-02T13:19:45;97529.25;;;23.42;52.00
68226;BME280;55045;49.410;11.030;2023-07-02T13:22:49;97526.81;;;23.79;52.41
68226;BME280;55045;49.410;11.030;2023-07-02T13:25:53;97516.63;;;24.38;49.91
68226;BME280;55045;49.410;11.030;2023-07-02T13:28:58;97527.19;;;23.68;47.96
68226;BME280;55045;49.410;11.030;2023-07-02T13:32:01;97535.84;;;23.62;51.43
68226;BME280;55045;49.410;11.030;2023-07-02T13:35:05;97542.50;;;22.85;53.39
68226;BME280;55045;49.410;11.030;2023-07-02T13:38:08;97540.59;;;23.75;53.06
68226;BME280;55045;49.410;11.030;2023-07-02T13:41:13;97528.84;;;24.08;52.75
68226;BME280;55045;49.410;11.030;2023-07-02T13:44:16;97533.06;;;24.26;50.19
68226;BME280;55045;49.410;11.030;2023-07-02T13:47:19;97524.38;;;24.09;48.64
68226;BME280;55045;49.410;11.030;2023-07-02T13:50:23;97535.94;;;24.16;47.85
68226;BME280;55045;49.410;11.030;2023-07-02T13:53:26;97534.13;;;24.70;48.56
68226;BME280;55045;49.410;11.030;2023-07-02T13:56:30;97531.56;;;24.31;46.59
68226;BME280;55045;49.410;11.030;2023-07-02T13:59:35;97542.84;;;24.25;46.66
68226;BME280;55045;49.410;11.030;2023-07-02T14:02:45;97537.19;;;24.28;48.35
68226;BME280;55045;49.410;11.030;2023-07-02T14:05:48;97532.66;;;24.45;49.52
68226;BME280;55045;49.410;11.030;2023-07-02T14:08:53;97540.56;;;24.76;49.12
68226;BME280;55045;49.410;11.030;2023-07-02T14:11:56;97530.25;;;24.27;45.74
68226;BME280;55045;49.410;11.030;2023-07-02T14:15:01;97543.88;;;24.78;45.57
68226;BME280;55045;49.410;11.030;2023-07-02T14:18:04;97534.44;;;24.53;45.41
68226;BME280;55045;49.410;11.030;2023-07-02T14:21:07;97535.53;;;24.35;44.88
68226;BME280;55045;49.410;11.030;2023-07-02T14:24:11;97524.75;;;24.60;45.83
68226;BME280;55045;49.410;11.030;2023-07-02T14:27:14;97530.25;;;24.35;46.40
68226;BME280;55045;49.410;11.030;2023-07-02T14:30:19;97536.91;;;24.77;45.82
68226;BME280;55045;49.410;11.030;2023-07-02T14:33:22;97531.47;;;24.17;47.01
68226;BME280;55045;49.410;11.030;2023-07-02T14:36:25;97525.31;;;24.55;45.70
68226;BME280;55045;49.410;11.030;2023-07-02T14:39:29;97541.53;;;24.83;47.07
68226;BME280;55045;49.410;11.030;2023-07-02T14:42:32;97537.75;;;24.16;46.85
68226;BME280;55045;49.410;11.030;2023-07-02T14:45:42;97530.31;;;24.73;45.12
68226;BME280;55045;49.410;11.030;2023-07-02T14:48:46;97544.44;;;24.88;44.16
68226;BME280;55045;49.410;11.030;2023-07-02T14:51:49;97534.56;;;25.05;45.14
68226;BME280;55045;49.410;11.030;2023-07-02T14:54:52;97539.66;;;24.38;45.12
68226;BME280;55045;49.410;11.030;2023-07-02T14:57:55;97528.00;;;24.70;45.42
68226;BME280;55045;49.410;11.030;2023-07-02T15:01:00;97531.38;;;24.87;46.41
68226;BME280;55045;49.410;11.030;2023-07-02T15:04:04;97527.22;;;24.38;46.67
68226;BME280;55045;49.410;11.030;2023-07-02T15:07:07;97526.78;;;24.58;45.56
68226;BME280;55045;49.410;11.030;2023-07-02T15:10:11;97531.44;;;24.25;46.12
68226;BME280;55045;49.410;11.030;2023-07-02T15:13:14;97538.03;;;23.18;46.76
68226;BME280;55045;49.410;11.030;2023-07-02T15:16:20;97527.53;;;23.73;47.31
68226;BME280;55045;49.410;11.030;2023-07-02T15:19:23;97517.84;;;23.89;46.28
68226;BME280;55045;49.410;11.030;2023-07-02T15:22:27;97519.00;;;23.94;45.34
68226;BME280;55045;49.410;11.030;2023-07-02T15:25:33;97527.44;;;23.34;47.04
68226;BME280;55045;49.410;11.030;2023-07-02T15:28:38;97523.22;;;23.72;47.24
68226;BME280;55045;49.410;11.030;2023-07-02T15:35:07;97523.16;;;23.17;48.36
68226;BME280;55045;49.410;11.030;2023-07-02T15:38:10;97530.59;;;23.30;49.70
68226;BME280;55045;49.410;11.030;2023-07-02T15:41:16;97525.78;;;23.33;49.04
68226;BME280;55045;49.410;11.030;2023-07-02T15:44:21;97527.44;;;23.26;48.95
68226;BME280;55045;49.410;11.030;2023-07-02T15:47:25;97528.19;;;23.67;48.98
68226;BME280;55045;49.410;11.030;2023-07-02T15:50:30;97529.91;;;23.36;48.63
68226;BME280;55045;49.410;11.030;2023-07-02T15:53:34;97527.44;;;23.18;48.68
68226;BME280;55045;49.410;11.030;2023-07-02T15:56:40;97526.31;;;23.04;49.33
68226;BME280;55045;49.410;11.030;2023-07-02T15:59:44;97528.91;;;23.37;49.85
68226;BME280;55045;49.410;11.030;2023-07-02T16:02:47;97531.22;;;23.40;49.39
68226;BME280;55045;49.410;11.030;2023-07-02T16:05:56;97529.94;;;23.19;49.69
68226;BME280;55045;49.410;11.030;2023-07-02T16:09:01;97534.06;;;22.97;49.87